Time;durP1;ratioP1;P1;durP2;ratioP2;P2;SDS_P1;SDS_P2;PMS_P1;PMS_P2;Temp;Humidity;BMP_temperature;BMP_pressure;BME280_temperature;BME280_humidity;BME280_pressure;Samples;Min_cycle;Max_cycle;Signal;HPM_P1;HPM_P2
2023/03/05 00:02:05;;;;;;;21.75;12.13;;;;;;;;;;5035561;28;20087;-65
2023/03/05 00:04:31;;;;;;;14.82;7.85;;;;;;;;;;5034323;28;20057;-64
2023/03/05 00:06:58;;;;;;;8.23;3.65;;;;;;;;;;5035669;28;20044;-63
2023/03/05 00:09:25;;;;;;;19.42;10.18;;;;;;;;;;5035119;28;20125;-63
2023/03/05 00:11:51;;;;;;;16.58;9.30;;;;;;;;;;5035970;28;20041;-66
2023/03/05 00:14:18;;;;;;;17.10;9.63;;;;;;;;;;5033903;28;20406;-66
2023/03/05 00:16:45;;;;;;;17.85;8.77;;;;;;;;;;5034228;28;20117;-64
2023/03/05 00:19:11;;;;;;;17.67;10.63;;;;;;;;;;5033380;28;20095;-65
2023/03/05 00:21:39;;;;;;;17.08;9.38;;;;;;;;;;5035195;28;20037;-63
2023/03/05 00:24:08;;;;;;;18.33;9.82;;;;;;;;;;5034160;28;20036;-66
2023/03/05 00:26:35;;;;;;;14.60;9.68;;;;;;;;;;5034076;28;20511;-64
2023/03/05 00:29:03;;;;;;;16.48;9.55;;;;;;;;;;5034549;28;20053;-64
2023/03/05 00:31:30;;;;;;;17.45;9.38;;;;;;;;;;5034705;28;20536;-65
2023/03/05 00:33:59;;;;;;;18.33;10.50;;;;;;;;;;5017252;28;20195;-65
2023/03/05 00:36:26;;;;;;;17.38;9.80;;;;;;;;;;5034488;28;20040;-68
2023/03/05 00:38:53;;;;;;;16.23;9.75;;;;;;;;;;5034876;28;20040;-64
2023/03/05 00:41:20;;;;;;;12.77;8.05;;;;;;;;;;5035085;28;20068;-66
2023/03/05 00:43:47;;;;;;;16.65;8.05;;;;;;;;;;5025719;28;20412;-68
2023/03/05 00:46:13;;;;;;;13.82;8.25;;;;;;;;;;5034147;28;20037;-64
2023/03/05 00:48:40;;;;;;;14.05;7.68;;;;;;;;;;5035456;28;20080;-65
2023/03/05 00:51:08;;;;;;;13.65;8.25;;;;;;;;;;5035164;28;20041;-65
2023/03/05 00:53:34;;;;;;;16.15;8.20;;;;;;;;;;5033814;28;20124;-69
2023/03/05 00:56:01;;;;;;;17.02;9.27;;;;;;;;;;5034830;28;20045;-68
2023/03/05 00:58:28;;;;;;;11.55;7.10;;;;;;;;;;5017680;28;20050;-67
2023/03/05 01:00:59;;;;;;;18.48;9.43;;;;;;;;;;5032754;28;20076;-67
2023/03/05 01:03:25;;;;;;;16.50;9.23;;;;;;;;;;5027952;28;20037;-67
2023/03/05 01:05:52;;;;;;;12.68;7.70;;;;;;;;;;5033239;28;20068;-66
2023/03/05 01:08:19;;;;;;;13.30;8.15;;;;;;;;;;5034666;28;20040;-67
2023/03/05 01:10:45;;;;;;;15.23;7.88;;;;;;;;;;5021078;28;20053;-66
2023/03/05 01:13:12;;;;;;;16.48;9.38;;;;;;;;;;5014191;28;20080;-64
2023/03/05 01:15:39;;;;;;;14.75;7.70;;;;;;;;;;5012120;28;20076;-64
2023/03/05 01:18:05;;;;;;;14.85;8.13;;;;;;;;;;5015337;28;20049;-66
2023/03/05 01:20:32;;;;;;;13.15;8.65;;;;;;;;;;5013896;28;20045;-66
2023/03/05 01:23:00;;;;;;;14.80;8.50;;;;;;;;;;5013284;28;20226;-65
2023/03/05 01:25:28;;;;;;;13.55;8.13;;;;;;;;;;5012614;28;20041;-65
2023/03/05 01:27:54;;;;;;;13.43;8.13;;;;;;;;;;5013243;28;20513;-64
2023/03/05 01:30:21;;;;;;;14.27;8.07;;;;;;;;;;5013578;28;20080;-67
2023/03/05 01:32:47;;;;;;;13.25;7.50;;;;;;;;;;5013875;28;20041;-65
2023/03/05 01:35:18;;;;;;;13.23;7.55;;;;;;;;;;5013571;28;20522;-65
2023/03/05 01:37:45;;;;;;;15.60;6.70;;;;;;;;;;5023134;28;20041;-65
2023/03/05 01:40:12;;;;;;;13.95;7.03;;;;;;;;;;5031878;28;20052;-65
2023/03/05 01:42:39;;;;;;;10.48;6.00;;;;;;;;;;5033350;28;20047;-65
2023/03/05 01:45:09;;;;;;;15.07;7.20;;;;;;;;;;5031562;28;20072;-66
2023/03/05 01:47:35;;;;;;;17.90;7.45;;;;;;;;;;5018963;28;20645;-64
2023/03/05 01:50:02;;;;;;;10.80;5.68;;;;;;;;;;5032839;28;20216;-64
2023/03/05 01:52:31;;;;;;;13.93;7.10;;;;;;;;;;5031942;28;20037;-65
2023/03/05 01:55:18;;;;;;;10.43;5.43;;;;;;;;;;5032264;28;20037;-64
2023/03/05 01:57:49;;;;;;;8.05;4.22;;;;;;;;;;5032891;28;20059;-64
2023/03/05 02:00:17;;;;;;;11.80;6.03;;;;;;;;;;5033297;28;20473;-63
2023/03/05 02:02:44;;;;;;;15.45;6.50;;;;;;;;;;5032282;28;20065;-65
2023/03/05 02:05:15;;;;;;;10.18;5.35;;;;;;;;;;5031867;28;20041;-65
2023/03/05 02:07:42;;;;;;;11.05;5.95;;;;;;;;;;5030243;28;20072;-64
2023/03/05 02:10:19;;;;;;;13.63;7.68;;;;;;;;;;5032491;28;20048;-64
2023/03/05 02:12:47;;;;;;;13.55;7.53;;;;;;;;;;5031957;28;20045;-63
2023/03/05 02:15:14;;;;;;;13.50;7.63;;;;;;;;;;5013326;28;20041;-67
2023/03/05 02:17:40;;;;;;;15.65;7.65;;;;;;;;;;5031439;28;20196;-67
2023/03/05 02:20:27;;;;;;;12.82;7.35;;;;;;;;;;5015425;28;20099;-66
2023/03/05 02:22:54;;;;;;;15.18;7.47;;;;;;;;;;5008933;28;20052;-64
2023/03/05 02:25:20;;;;;;;14.85;7.78;;;;;;;;;;4993119;28;20057;-64
2023/03/05 02:28:07;;;;;;;13.55;5.38;;;;;;;;;;5001329;28;20101;-65
2023/03/05 02:30:34;;;;;;;14.30;7.50;;;;;;;;;;5008086;28;20190;-65
2023/03/05 02:33:01;;;;;;;10.30;5.68;;;;;;;;;;5010414;28;20101;-64
2023/03/05 02:35:28;;;;;;;15.85;7.13;;;;;;;;;;5007143;28;20044;-62
2023/03/05 02:37:54;;;;;;;9.73;5.45;;;;;;;;;;5009347;28;20037;-65
2023/03/05 02:40:21;;;;;;;12.85;6.03;;;;;;;;;;5010026;28;20125;-64
2023/03/05 02:42:48;;;;;;;11.02;4.25;;;;;;;;;;5001192;28;20057;-64
2023/03/05 02:45:15;;;;;;;7.95;4.28;;;;;;;;;;5007504;28;20053;-66
2023/03/05 02:47:41;;;;;;;12.10;6.65;;;;;;;;;;5009600;28;20045;-64
2023/03/05 02:50:09;;;;;;;8.82;5.53;;;;;;;;;;5009599;28;20552;-66
2023/03/05 02:52:36;;;;;;;10.15;6.05;;;;;;;;;;4997244;28;20120;-65
2023/03/05 02:55:03;;;;;;;9.70;5.68;;;;;;;;;;4996021;28;22363;-65
2023/03/05 02:57:29;;;;;;;9.10;4.72;;;;;;;;;;5008341;28;20044;-64
2023/03/05 02:59:56;;;;;;;10.00;5.55;;;;;;;;;;5016314;28;20567;-64
2023/03/05 03:02:23;;;;;;;12.80;6.93;;;;;;;;;;5032024;28;20120;-65
2023/03/05 03:04:49;;;;;;;10.30;5.47;;;;;;;;;;5031721;28;20040;-63
2023/03/05 03:07:16;;;;;;;12.52;7.00;;;;;;;;;;5015110;28;20059;-64
2023/03/05 03:09:43;;;;;;;11.50;6.22;;;;;;;;;;5031717;28;20250;-65
2023/03/05 03:12:10;;;;;;;12.60;6.93;;;;;;;;;;5031869;28;20073;-64
2023/03/05 03:14:39;;;;;;;13.32;7.53;;;;;;;;;;5030374;28;20050;-65
2023/03/05 03:17:10;;;;;;;14.02;7.28;;;;;;;;;;5029614;28;20029;-65
2023/03/05 03:19:37;;;;;;;13.35;6.70;;;;;;;;;;5030362;28;22281;-64
2023/03/05 03:22:05;;;;;;;12.27;7.28;;;;;;;;;;5013217;28;20068;-63
2023/03/05 03:24:32;;;;;;;12.05;7.15;;;;;;;;;;5029502;28;20510;-64
2023/03/05 03:26:59;;;;;;;15.05;6.22;;;;;;;;;;5030282;28;20141;-64
2023/03/05 03:29:26;;;;;;;13.23;7.38;;;;;;;;;;5031174;28;20053;-64
2023/03/05 03:31:53;;;;;;;14.50;7.88;;;;;;;;;;5031926;28;20040;-64
2023/03/05 03:34:19;;;;;;;9.93;4.95;;;;;;;;;;5030376;28;20033;-67
2023/03/05 03:36:47;;;;;;;13.63;7.57;;;;;;;;;;5029324;28;20045;-63
2023/03/05 03:39:13;;;;;;;12.98;7.15;;;;;;;;;;5017228;28;20044;-65
2023/03/05 03:41:41;;;;;;;11.70;5.53;;;;;;;;;;5029433;28;20432;-64
2023/03/05 03:44:09;;;;;;;12.25;6.28;;;;;;;;;;5013329;28;20051;-65
2023/03/05 03:46:36;;;;;;;12.70;7.13;;;;;;;;;;5029389;28;20045;-65
2023/03/05 03:49:03;;;;;;;13.43;6.10;;;;;;;;;;5030891;28;20045;-68
2023/03/05 03:51:30;;;;;;;9.23;5.28;;;;;;;;;;5030326;28;20064;-65
2023/03/05 03:53:57;;;;;;;12.48;6.28;;;;;;;;;;5030253;28;20041;-64
2023/03/05 03:56:23;;;;;;;6.90;3.67;;;;;;;;;;5031011;28;20037;-63
2023/03/05 03:58:51;;;;;;;12.77;5.88;;;;;;;;;;5031106;28;20033;-67
2023/03/05 04:01:18;;;;;;;10.07;5.05;;;;;;;;;;5031524;28;20065;-63
2023/03/05 04:03:47;;;;;;;10.63;5.45;;;;;;;;;;5013018;28;20063;-63
2023/03/05 04:06:13;;;;;;;9.00;5.20;;;;;;;;;;5031083;28;20462;-63
2023/03/05 04:08:40;;;;;;;10.23;5.15;;;;;;;;;;5030645;28;20992;-61
2023/03/05 04:11:07;;;;;;;10.75;5.75;;;;;;;;;;5031184;28;20461;-65
2023/03/05 04:13:33;;;;;;;9.38;4.43;;;;;;;;;;5030414;28;21654;-65
2023/03/05 04:16:00;;;;;;;8.38;5.15;;;;;;;;;;5030628;28;20192;-67
2023/03/05 04:18:27;;;;;;;8.68;5.10;;;;;;;;;;5007614;28;20037;-66
2023/03/05 04:21:13;;;;;;;13.45;5.78;;;;;;;;;;5030047;28;20048;-64
2023/03/05 04:23:40;;;;;;;8.80;4.57;;;;;;;;;;5029221;28;20694;-66
2023/03/05 04:26:07;;;;;;;10.90;4.32;;;;;;;;;;5029023;28;20039;-65
2023/03/05 04:28:33;;;;;;;9.07;4.78;;;;;;;;;;5006426;28;20494;-62
2023/03/05 04:31:00;;;;;;;8.07;4.47;;;;;;;;;;5030488;28;20061;-63
2023/03/05 04:33:27;;;;;;;8.07;3.75;;;;;;;;;;5015212;28;20036;-63
2023/03/05 04:35:53;;;;;;;8.40;3.72;;;;;;;;;;5030411;28;20033;-64
2023/03/05 04:38:20;;;;;;;7.57;4.13;;;;;;;;;;5033935;28;20665;-67
2023/03/05 04:40:47;;;;;;;7.25;3.80;;;;;;;;;;5012665;28;20608;-64
2023/03/05 04:43:13;;;;;;;6.90;4.18;;;;;;;;;;5010224;28;20033;-65
2023/03/05 04:45:41;;;;;;;11.80;4.30;;;;;;;;;;5018170;28;20046;-64
2023/03/05 04:48:08;;;;;;;9.68;4.57;;;;;;;;;;5012235;28;20533;-65
2023/03/05 04:50:34;;;;;;;6.53;3.88;;;;;;;;;;5019921;28;20048;-66
2023/03/05 04:53:01;;;;;;;8.07;4.28;;;;;;;;;;5033726;28;20047;-68
2023/03/05 04:55:28;;;;;;;5.85;2.60;;;;;;;;;;5032705;28;20064;-65
2023/03/05 04:57:55;;;;;;;10.15;4.40;;;;;;;;;;5030696;28;20065;-65
2023/03/05 05:00:21;;;;;;;11.48;4.18;;;;;;;;;;5009203;28;20131;-66
2023/03/05 05:02:49;;;;;;;10.60;3.78;;;;;;;;;;5032789;28;20060;-65
2023/03/05 05:05:22;;;;;;;8.23;4.75;;;;;;;;;;5017942;28;20431;-64
2023/03/05 05:07:48;;;;;;;9.90;4.32;;;;;;;;;;5013119;28;20053;-65
2023/03/05 05:10:16;;;;;;;9.10;3.88;;;;;;;;;;5013448;28;20080;-68
2023/03/05 05:12:42;;;;;;;7.68;4.22;;;;;;;;;;5020647;28;20137;-65
2023/03/05 05:15:09;;;;;;;8.57;3.20;;;;;;;;;;5023310;28;20054;-65
2023/03/05 05:17:36;;;;;;;6.53;3.13;;;;;;;;;;5020280;28;20058;-66
2023/03/05 05:20:05;;;;;;;7.07;4.07;;;;;;;;;;5022805;28;20459;-66
2023/03/05 05:22:32;;;;;;;8.20;4.55;;;;;;;;;;5014418;28;20124;-64
2023/03/05 05:24:59;;;;;;;6.32;3.60;;;;;;;;;;5015008;28;20048;-65
2023/03/05 05:27:25;;;;;;;9.65;4.10;;;;;;;;;;5015015;28;21708;-64
2023/03/05 05:29:52;;;;;;;9.68;3.92;;;;;;;;;;5015665;28;20238;-64
2023/03/05 05:32:19;;;;;;;5.63;3.13;;;;;;;;;;5012326;28;20029;-68
2023/03/05 05:34:46;;;;;;;9.60;4.35;;;;;;;;;;5012087;28;20100;-63
2023/03/05 05:37:12;;;;;;;3.03;1.98;;;;;;;;;;5013307;28;20072;-64
2023/03/05 05:39:39;;;;;;;7.38;3.85;;;;;;;;;;5012947;28;20459;-64
2023/03/05 05:42:06;;;;;;;7.55;3.03;;;;;;;;;;5012235;28;20053;-65
2023/03/05 05:44:33;;;;;;;5.68;3.13;;;;;;;;;;5009630;28;20049;-65
2023/03/05 05:47:00;;;;;;;9.57;4.20;;;;;;;;;;5011639;28;20033;-65
2023/03/05 05:49:27;;;;;;;9.80;3.80;;;;;;;;;;5010340;28;20145;-64
2023/03/05 05:52:13;;;;;;;6.75;3.53;;;;;;;;;;5006972;28;20041;-67
2023/03/05 05:54:40;;;;;;;8.23;4.13;;;;;;;;;;5006549;28;20049;-64
2023/03/05 05:57:07;;;;;;;6.70;3.80;;;;;;;;;;5006422;28;20071;-65
2023/03/05 05:59:33;;;;;;;6.15;3.22;;;;;;;;;;5005512;28;20087;-65
2023/03/05 06:02:00;;;;;;;8.05;3.60;;;;;;;;;;5007192;28;21262;-64
2023/03/05 06:04:27;;;;;;;6.65;3.55;;;;;;;;;;5006264;28;20058;-63
2023/03/05 06:06:53;;;;;;;10.55;3.92;;;;;;;;;;5007428;28;20083;-64
2023/03/05 06:09:20;;;;;;;7.18;3.55;;;;;;;;;;5007656;28;20496;-66
2023/03/05 06:11:47;;;;;;;7.55;3.45;;;;;;;;;;5009023;28;20100;-66
2023/03/05 06:14:13;;;;;;;7.03;3.28;;;;;;;;;;5008639;28;20164;-64
2023/03/05 06:16:40;;;;;;;9.00;3.00;;;;;;;;;;5008089;28;20038;-63
2023/03/05 06:19:08;;;;;;;6.72;2.75;;;;;;;;;;5014635;28;20041;-65
2023/03/05 06:21:35;;;;;;;7.82;2.50;;;;;;;;;;5004791;28;20406;-65
2023/03/05 06:24:02;;;;;;;6.18;2.45;;;;;;;;;;5016273;28;20053;-62
2023/03/05 06:26:29;;;;;;;5.57;2.30;;;;;;;;;;5014827;28;20043;-65
2023/03/05 06:28:56;;;;;;;5.53;2.97;;;;;;;;;;5013739;28;20961;-61
2023/03/05 06:31:26;;;;;;;4.68;2.35;;;;;;;;;;5012991;28;20116;-66
2023/03/05 06:34:00;;;;;;;14.75;3.10;;;;;;;;;;5014028;28;20034;-62
2023/03/05 06:36:27;;;;;;;6.25;2.53;;;;;;;;;;5011107;28;20095;-65
2023/03/05 06:38:53;;;;;;;7.38;3.13;;;;;;;;;;5012622;28;20041;-63
2023/03/05 06:41:22;;;;;;;5.47;2.67;;;;;;;;;;5012082;28;20387;-65
2023/03/05 06:43:49;;;;;;;8.10;3.40;;;;;;;;;;5023470;28;20122;-65
2023/03/05 06:46:15;;;;;;;5.97;3.08;;;;;;;;;;5031359;28;20171;-64
2023/03/05 06:48:42;;;;;;;7.57;3.47;;;;;;;;;;5031911;28;20055;-65
2023/03/05 06:51:16;;;;;;;5.05;2.45;;;;;;;;;;5030622;28;20049;-64
2023/03/05 06:53:43;;;;;;;6.75;2.88;;;;;;;;;;5031350;28;20511;-64
2023/03/05 06:56:12;;;;;;;7.72;3.55;;;;;;;;;;5011462;28;20600;-64
2023/03/05 06:58:42;;;;;;;6.82;3.10;;;;;;;;;;5030407;28;20452;-64
2023/03/05 07:01:09;;;;;;;5.78;3.45;;;;;;;;;;5030432;28;20128;-64
2023/03/05 07:03:36;;;;;;;4.20;2.10;;;;;;;;;;5030391;28;20034;-64
2023/03/05 07:06:07;;;;;;;7.97;3.88;;;;;;;;;;5031645;28;20595;-64
2023/03/05 07:08:34;;;;;;;5.53;2.80;;;;;;;;;;5029706;28;20036;-64
2023/03/05 07:11:00;;;;;;;8.70;3.25;;;;;;;;;;5029555;28;20066;-65
2023/03/05 07:13:28;;;;;;;6.03;2.80;;;;;;;;;;5030734;28;20048;-62
2023/03/05 07:15:55;;;;;;;5.60;2.53;;;;;;;;;;5032034;28;20042;-62
2023/03/05 07:18:21;;;;;;;8.43;3.67;;;;;;;;;;5030851;28;20083;-65
2023/03/05 07:20:48;;;;;;;4.82;2.42;;;;;;;;;;5031930;28;20107;-65
2023/03/05 07:23:14;;;;;;;5.97;3.10;;;;;;;;;;5032060;28;20038;-64
2023/03/05 07:25:41;;;;;;;5.90;2.72;;;;;;;;;;5030973;28;20037;-64
2023/03/05 07:28:09;;;;;;;5.40;2.22;;;;;;;;;;5032008;28;20041;-66
2023/03/05 07:30:36;;;;;;;4.03;2.08;;;;;;;;;;5029739;28;20095;-65
2023/03/05 07:33:03;;;;;;;6.55;3.30;;;;;;;;;;5030777;28;20140;-63
2023/03/05 07:35:29;;;;;;;6.75;3.53;;;;;;;;;;5032342;28;20047;-64
2023/03/05 07:37:56;;;;;;;7.65;3.60;;;;;;;;;;5034773;28;20726;-65
2023/03/05 07:40:22;;;;;;;9.65;4.07;;;;;;;;;;5036314;28;20048;-65
2023/03/05 07:42:49;;;;;;;7.15;3.15;;;;;;;;;;5021359;28;20041;-64
2023/03/05 07:45:16;;;;;;;7.53;4.07;;;;;;;;;;5035100;28;20573;-65
2023/03/05 07:47:42;;;;;;;8.13;4.07;;;;;;;;;;5033609;28;20094;-65
2023/03/05 07:50:09;;;;;;;5.78;2.47;;;;;;;;;;5030710;28;20041;-64
2023/03/05 07:52:36;;;;;;;10.85;3.72;;;;;;;;;;5029912;28;20468;-65
2023/03/05 07:55:03;;;;;;;2.63;1.50;;;;;;;;;;5030916;28;20044;-66
2023/03/05 07:57:30;;;;;;;8.30;3.40;;;;;;;;;;5013450;28;20378;-64
2023/03/05 07:59:56;;;;;;;12.02;3.63;;;;;;;;;;5032104;28;20048;-66
2023/03/05 08:02:25;;;;;;;8.60;3.58;;;;;;;;;;5032139;28;20135;-64
2023/03/05 08:04:52;;;;;;;10.18;4.05;;;;;;;;;;5030856;28;20140;-64
2023/03/05 08:07:18;;;;;;;8.88;4.00;;;;;;;;;;5032968;28;20045;-65
2023/03/05 08:09:45;;;;;;;8.52;2.83;;;;;;;;;;5033546;28;20068;-66
2023/03/05 08:12:11;;;;;;;8.23;3.78;;;;;;;;;;5035682;28;20680;-65
2023/03/05 08:14:38;;;;;;;10.48;3.75;;;;;;;;;;5032662;28;20124;-64
2023/03/05 08:17:05;;;;;;;8.80;3.95;;;;;;;;;;5020281;28;20037;-64
2023/03/05 08:19:33;;;;;;;8.18;4.03;;;;;;;;;;5026271;28;20037;-66
2023/03/05 08:21:59;;;;;;;11.68;3.28;;;;;;;;;;5035523;28;20090;-65
2023/03/05 08:24:28;;;;;;;6.88;4.05;;;;;;;;;;5033552;28;20040;-65
2023/03/05 08:26:59;;;;;;;7.18;3.70;;;;;;;;;;5035678;28;20048;-66
2023/03/05 08:29:26;;;;;;;7.60;4.15;;;;;;;;;;5034897;28;20060;-64
2023/03/05 08:31:53;;;;;;;12.35;5.20;;;;;;;;;;5033779;28;20045;-64
2023/03/05 08:34:20;;;;;;;8.57;4.22;;;;;;;;;;5033235;28;20049;-65
2023/03/05 08:36:47;;;;;;;12.40;5.05;;;;;;;;;;5034330;28;20428;-65
2023/03/05 08:39:14;;;;;;;9.52;4.40;;;;;;;;;;5036105;28;20107;-64
2023/03/05 08:41:41;;;;;;;13.65;4.88;;;;;;;;;;5034163;28;20045;-65
2023/03/05 08:44:08;;;;;;;12.90;5.85;;;;;;;;;;5033662;28;20041;-65
2023/03/05 08:46:35;;;;;;;11.90;4.60;;;;;;;;;;5034743;28;20045;-66
2023/03/05 08:49:02;;;;;;;16.15;4.95;;;;;;;;;;5034030;28;20092;-66
2023/03/05 08:51:29;;;;;;;14.30;6.50;;;;;;;;;;5032119;28;20072;-67
2023/03/05 08:53:58;;;;;;;11.73;5.63;;;;;;;;;;5031612;28;20049;-64
2023/03/05 08:56:27;;;;;;;5.68;2.30;;;;;;;;;;5031472;28;20497;-63
2023/03/05 08:58:54;;;;;;;14.52;6.10;;;;;;;;;;5034815;28;20041;-65
2023/03/05 09:01:22;;;;;;;12.60;5.75;;;;;;;;;;5033498;28;20045;-64
2023/03/05 09:03:49;;;;;;;7.68;3.13;;;;;;;;;;5033782;28;20064;-64
2023/03/05 09:06:16;;;;;;;12.63;6.22;;;;;;;;;;5033252;28;20582;-64
2023/03/05 09:08:43;;;;;;;13.48;5.43;;;;;;;;;;5031328;28;20145;-64
2023/03/05 09:11:11;;;;;;;11.60;4.95;;;;;;;;;;5033713;28;20060;-64
2023/03/05 09:13:38;;;;;;;11.98;5.93;;;;;;;;;;5032734;28;20029;-64
2023/03/05 09:16:05;;;;;;;13.68;5.95;;;;;;;;;;5032808;28;20083;-64
2023/03/05 09:18:35;;;;;;;6.47;3.20;;;;;;;;;;5032531;28;20045;-63
2023/03/05 09:21:05;;;;;;;12.15;6.07;;;;;;;;;;5034291;28;20091;-63
2023/03/05 09:23:32;;;;;;;10.20;4.53;;;;;;;;;;5032929;28;20036;-64
2023/03/05 09:25:59;;;;;;;10.60;5.60;;;;;;;;;;5033013;28;20047;-63
2023/03/05 09:28:26;;;;;;;11.20;3.90;;;;;;;;;;5032913;28;20047;-65
2023/03/05 09:30:52;;;;;;;16.80;5.53;;;;;;;;;;5035010;28;20052;-64
2023/03/05 09:33:19;;;;;;;7.25;3.78;;;;;;;;;;5034057;28;20045;-64
2023/03/05 09:35:47;;;;;;;9.27;4.53;;;;;;;;;;5036969;28;20114;-65
2023/03/05 09:38:14;;;;;;;10.05;4.65;;;;;;;;;;5053394;28;20104;-64
2023/03/05 09:41:02;;;;;;;6.93;3.40;;;;;;;;;;5036989;28;20052;-63
2023/03/05 09:43:49;;;;;;;6.30;3.30;;;;;;;;;;5011498;28;20056;-65
2023/03/05 09:46:24;;;;;;;7.55;3.50;;;;;;;;;;5047671;28;20041;-65
2023/03/05 09:48:51;;;;;;;6.88;3.05;;;;;;;;;;5032850;28;20914;-65
2023/03/05 09:51:29;;;;;;;6.68;3.55;;;;;;;;;;5033566;28;20049;-65
2023/03/05 09:54:01;;;;;;;5.75;2.70;;;;;;;;;;5032934;28;20049;-65
2023/03/05 09:56:34;;;;;;;5.68;2.55;;;;;;;;;;5033207;28;20037;-65
2023/03/05 09:59:01;;;;;;;9.43;3.70;;;;;;;;;;5032886;28;20527;-65
2023/03/05 10:01:38;;;;;;;8.18;4.05;;;;;;;;;;5033299;28;20120;-65
2023/03/05 10:04:31;;;;;;;5.20;2.58;;;;;;;;;;5033282;28;20041;-65
2023/03/05 10:07:04;;;;;;;6.75;3.13;;;;;;;;;;4993616;28;20045;-66
2023/03/05 10:09:54;;;;;;;3.45;2.03;;;;;;;;;;5020014;28;20080;-65
2023/03/05 10:12:27;;;;;;;5.40;2.30;;;;;;;;;;5008991;28;20042;-65
2023/03/05 10:14:54;;;;;;;4.78;2.25;;;;;;;;;;5012510;28;20090;-65
2023/03/05 10:17:36;;;;;;;6.88;3.20;;;;;;;;;;5010862;28;20128;-66
2023/03/05 10:20:09;;;;;;;6.38;2.78;;;;;;;;;;5010812;28;20049;-65
2023/03/05 10:22:53;;;;;;;6.20;1.90;;;;;;;;;;5012533;28;20048;-65
2023/03/05 10:25:34;;;;;;;12.50;4.50;;;;;;;;;;5011704;28;20041;-66
2023/03/05 10:28:04;;;;;;;5.68;2.53;;;;;;;;;;5017661;28;20103;-64
2023/03/05 10:30:31;;;;;;;3.53;1.58;;;;;;;;;;5010971;28;20166;-64
2023/03/05 10:33:06;;;;;;;8.13;3.70;;;;;;;;;;5011965;28;20101;-65
2023/03/05 10:35:32;;;;;;;8.20;4.50;;;;;;;;;;5012006;28;20037;-65
2023/03/05 10:38:28;;;;;;;6.80;2.20;;;;;;;;;;5013572;28;20518;-64
2023/03/05 10:40:55;;;;;;;9.75;2.80;;;;;;;;;;4997776;28;20050;-65
2023/03/05 10:43:41;;;;;;;6.90;3.47;;;;;;;;;;5010135;28;20704;-65
2023/03/05 10:46:12;;;;;;;5.22;2.78;;;;;;;;;;5012078;28;20034;-65
2023/03/05 10:48:50;;;;;;;7.72;3.22;;;;;;;;;;5010282;28;20063;-65
2023/03/05 10:51:19;;;;;;;6.35;3.08;;;;;;;;;;5013194;28;20145;-66
2023/03/05 10:53:56;;;;;;;4.97;2.15;;;;;;;;;;5020458;28;20041;-65
2023/03/05 10:56:25;;;;;;;4.43;2.30;;;;;;;;;;5012666;28;20050;-65
2023/03/05 10:58:51;;;;;;;5.60;2.97;;;;;;;;;;5012107;28;20032;-66
2023/03/05 11:01:20;;;;;;;6.75;3.45;;;;;;;;;;5011704;28;20053;-65
2023/03/05 11:03:50;;;;;;;5.82;2.72;;;;;;;;;;5013495;28;20040;-65
2023/03/05 11:06:26;;;;;;;7.47;3.17;;;;;;;;;;5031626;28;20145;-65
2023/03/05 11:08:53;;;;;;;3.97;2.03;;;;;;;;;;5031088;28;20041;-66
2023/03/05 11:11:21;;;;;;;13.38;4.55;;;;;;;;;;5031565;28;20044;-66
2023/03/05 11:13:54;;;;;;;2.80;1.63;;;;;;;;;;5030186;28;20037;-64
2023/03/05 11:16:25;;;;;;;8.55;1.92;;;;;;;;;;5030385;28;20050;-66
2023/03/05 11:19:11;;;;;;;5.40;2.83;;;;;;;;;;5031588;28;20048;-66
2023/03/05 11:21:39;;;;;;;6.75;3.17;;;;;;;;;;5031548;28;20148;-64
2023/03/05 11:24:17;;;;;;;4.47;2.00;;;;;;;;;;5031919;28;20045;-65
2023/03/05 11:26:49;;;;;;;7.70;3.92;;;;;;;;;;5030896;28;20121;-66
2023/03/05 11:29:23;;;;;;;5.47;2.90;;;;;;;;;;5030943;28;20048;-65
2023/03/05 11:31:49;;;;;;;2.70;1.42;;;;;;;;;;5021670;28;20048;-66
2023/03/05 11:34:19;;;;;;;8.23;3.65;;;;;;;;;;5030264;28;20410;-66
2023/03/05 11:36:55;;;;;;;4.43;2.50;;;;;;;;;;5030304;28;20383;-65
2023/03/05 11:39:23;;;;;;;8.13;2.22;;;;;;;;;;5031603;28;20045;-66
2023/03/05 11:42:00;;;;;;;6.30;3.22;;;;;;;;;;5033480;28;20041;-65
2023/03/05 11:44:29;;;;;;;6.40;3.15;;;;;;;;;;5034396;28;20052;-66
2023/03/05 11:47:19;;;;;;;3.92;1.63;;;;;;;;;;5021147;28;20277;-65
2023/03/05 11:49:47;;;;;;;4.05;2.10;;;;;;;;;;5005041;28;20111;-64
2023/03/05 11:52:38;;;;;;;5.15;2.17;;;;;;;;;;5034942;28;20045;-66
2023/03/05 11:55:08;;;;;;;7.45;2.92;;;;;;;;;;5033801;28;20041;-66
2023/03/05 11:57:48;;;;;;;8.05;3.17;;;;;;;;;;5034673;28;20482;-65
2023/03/05 12:00:17;;;;;;;5.82;2.35;;;;;;;;;;5035630;28;20761;-65
2023/03/05 12:02:47;;;;;;;4.00;1.95;;;;;;;;;;5034416;28;20089;-65
2023/03/05 12:05:14;;;;;;;5.63;2.58;;;;;;;;;;5033695;28;20094;-65
2023/03/05 12:07:44;;;;;;;6.75;3.05;;;;;;;;;;5013016;28;20041;-64
2023/03/05 12:10:19;;;;;;;7.30;3.15;;;;;;;;;;5035077;28;20053;-65
2023/03/05 12:12:57;;;;;;;4.88;2.65;;;;;;;;;;5034026;28;20132;-65
2023/03/05 12:15:38;;;;;;;6.28;3.30;;;;;;;;;;5032970;28;20132;-65
2023/03/05 12:18:08;;;;;;;8.10;3.83;;;;;;;;;;5033955;28;20087;-66
2023/03/05 12:20:57;;;;;;;4.28;2.28;;;;;;;;;;5035721;28;20449;-65
2023/03/05 12:23:26;;;;;;;7.28;3.70;;;;;;;;;;5032250;28;20040;-66
2023/03/05 12:25:58;;;;;;;9.57;3.03;;;;;;;;;;5034860;28;20033;-66
2023/03/05 12:28:30;;;;;;;5.78;3.03;;;;;;;;;;5034158;28;20056;-64
2023/03/05 12:30:59;;;;;;;6.13;3.25;;;;;;;;;;5021227;28;20140;-66
2023/03/05 12:33:42;;;;;;;8.45;3.70;;;;;;;;;;5033620;28;20895;-65
2023/03/05 12:36:21;;;;;;;2.30;1.15;;;;;;;;;;5033926;28;20051;-66
2023/03/05 12:38:50;;;;;;;9.45;3.85;;;;;;;;;;5025618;28;20129;-65
2023/03/05 12:41:38;;;;;;;7.43;3.38;;;;;;;;;;5033889;28;20159;-69
2023/03/05 12:44:05;;;;;;;6.70;2.53;;;;;;;;;;5024865;28;20041;-66
2023/03/05 12:46:34;;;;;;;6.20;2.92;;;;;;;;;;5030786;28;20041;-65
2023/03/05 12:49:25;;;;;;;8.35;3.58;;;;;;;;;;5014700;28;20112;-65
2023/03/05 12:51:53;;;;;;;1.42;0.80;;;;;;;;;;5011905;28;20057;-65
2023/03/05 12:54:24;;;;;;;6.78;2.97;;;;;;;;;;5012607;28;20377;-67
2023/03/05 12:56:52;;;;;;;6.38;3.05;;;;;;;;;;5015087;28;20051;-66
2023/03/05 12:59:20;;;;;;;5.07;2.08;;;;;;;;;;5013793;28;20040;-66
2023/03/05 13:01:58;;;;;;;4.10;2.05;;;;;;;;;;5012727;28;20248;-63
2023/03/05 13:04:28;;;;;;;6.20;2.60;;;;;;;;;;5011645;28;20058;-65
2023/03/05 13:07:03;;;;;;;16.40;2.75;;;;;;;;;;5013071;28;20665;-65
2023/03/05 13:09:32;;;;;;;5.00;2.75;;;;;;;;;;5012065;28;20049;-67
2023/03/05 13:11:59;;;;;;;6.25;3.17;;;;;;;;;;5011804;28;20120;-64
2023/03/05 13:14:32;;;;;;;5.30;2.50;;;;;;;;;;5012277;28;20041;-62
2023/03/05 13:16:58;;;;;;;2.53;1.67;;;;;;;;;;5013475;28;20132;-63
2023/03/05 13:19:25;;;;;;;6.15;2.83;;;;;;;;;;5012307;28;20045;-65
2023/03/05 13:22:03;;;;;;;4.35;2.17;;;;;;;;;;5011468;28;20037;-66
2023/03/05 13:24:30;;;;;;;5.70;2.50;;;;;;;;;;5010476;28;20050;-66
2023/03/05 13:26:56;;;;;;;7.22;3.13;;;;;;;;;;5012898;28;20111;-64
2023/03/05 13:29:29;;;;;;;2.83;1.65;;;;;;;;;;5008309;28;20048;-64
2023/03/05 13:31:58;;;;;;;4.80;2.53;;;;;;;;;;5011858;28;20164;-65
2023/03/05 13:34:29;;;;;;;2.05;1.50;;;;;;;;;;5012048;28;21826;-66
2023/03/05 13:36:56;;;;;;;4.82;1.50;;;;;;;;;;5011333;28;20041;-65
2023/03/05 13:39:26;;;;;;;6.38;2.38;;;;;;;;;;5012295;28;20048;-66
2023/03/05 13:42:02;;;;;;;1.88;0.95;;;;;;;;;;5011338;28;20038;-65
2023/03/05 13:44:29;;;;;;;4.65;2.28;;;;;;;;;;5013267;28;20042;-66
2023/03/05 13:47:18;;;;;;;7.93;2.65;;;;;;;;;;5011759;28;20433;-65
2023/03/05 13:49:46;;;;;;;6.90;3.13;;;;;;;;;;5011385;28;20049;-65
2023/03/05 13:52:22;;;;;;;5.57;2.67;;;;;;;;;;5010068;28;20063;-65
2023/03/05 13:54:49;;;;;;;7.65;3.03;;;;;;;;;;5010888;28;20052;-68
2023/03/05 13:57:34;;;;;;;6.90;3.80;;;;;;;;;;5012793;28;20115;-66
2023/03/05 14:00:01;;;;;;;7.50;3.20;;;;;;;;;;5018425;28;20458;-66
2023/03/05 14:02:29;;;;;;;6.68;3.13;;;;;;;;;;5017295;28;20491;-66
2023/03/05 14:04:56;;;;;;;6.95;3.70;;;;;;;;;;5032180;28;21750;-65
2023/03/05 14:07:23;;;;;;;3.33;1.70;;;;;;;;;;5032757;28;20160;-67
2023/03/05 14:09:51;;;;;;;6.60;3.13;;;;;;;;;;5032543;28;20060;-67
2023/03/05 14:12:36;;;;;;;5.03;2.20;;;;;;;;;;5032736;28;20040;-69
2023/03/05 14:15:06;;;;;;;5.43;2.67;;;;;;;;;;4999071;28;20446;-68
2023/03/05 14:17:45;;;;;;;11.05;4.03;;;;;;;;;;5027383;28;20067;-66
2023/03/05 14:20:28;;;;;;;8.40;2.97;;;;;;;;;;5012070;28;20076;-67
2023/03/05 14:22:56;;;;;;;6.53;2.75;;;;;;;;;;4993964;28;20065;-68
2023/03/05 14:25:29;;;;;;;6.30;1.95;;;;;;;;;;5009315;28;20029;-66
2023/03/05 14:27:56;;;;;;;1.75;1.10;;;;;;;;;;5012614;28;20041;-65
2023/03/05 14:30:24;;;;;;;5.07;2.85;;;;;;;;;;5009871;28;20049;-66
2023/03/05 14:32:53;;;;;;;3.38;1.55;;;;;;;;;;5027820;28;20037;-67
2023/03/05 14:35:24;;;;;;;10.20;2.58;;;;;;;;;;5013615;28;20037;-67
2023/03/05 14:37:51;;;;;;;6.00;3.00;;;;;;;;;;5019926;28;20038;-66
2023/03/05 14:40:19;;;;;;;1.67;0.68;;;;;;;;;;5013262;28;20140;-68
2023/03/05 14:43:00;;;;;;;2.67;1.52;;;;;;;;;;5016353;28;20379;-68
2023/03/05 14:45:42;;;;;;;4.00;2.00;;;;;;;;;;5032489;28;20036;-67
2023/03/05 14:48:10;;;;;;;1.88;1.15;;;;;;;;;;5032812;28;20132;-69
2023/03/05 14:50:38;;;;;;;3.25;1.38;;;;;;;;;;5032107;28;20064;-67
2023/03/05 14:53:25;;;;;;;5.90;2.80;;;;;;;;;;5014310;28;20042;-67